Time;durP1;ratioP1;P1;durP2;ratioP2;P2;SDS_P1;SDS_P2;PMS_P1;PMS_P2;Temp;Humidity;BMP_temperature;BMP_pressure;BME280_temperature;BME280_humidity;BME280_pressure;Samples;Min_cycle;Max_cycle;Signal;HPM_P1;HPM_P2
2021/07/20 00:02:12;;;;;;;11.20;6.07;;;17.90;99.90;;;;;;4920595;29;20918;-76
2021/07/20 00:04:39;;;;;;;6.93;5.53;;;17.90;99.90;;;;;;4919714;29;20922;-75
2021/07/20 00:07:05;;;;;;;9.47;6.30;;;17.90;1.00;;;;;;4920147;29;20466;-75
2021/07/20 00:09:34;;;;;;;7.40;4.70;;;17.90;1.00;;;;;;4920470;29;20476;-76
2021/07/20 00:12:00;;;;;;;6.80;4.93;;;17.90;1.00;;;;;;4919315;29;20500;-76
2021/07/20 00:14:27;;;;;;;8.50;4.67;;;17.90;1.00;;;;;;4920029;29;20532;-75
2021/07/20 00:16:54;;;;;;;6.10;4.63;;;17.90;1.00;;;;;;4919863;29;20457;-76
2021/07/20 00:19:20;;;;;;;6.23;5.10;;;17.90;99.90;;;;;;4919917;29;20480;-75
2021/07/20 00:21:49;;;;;;;6.00;4.40;;;17.90;99.90;;;;;;4919294;29;20457;-76
2021/07/20 00:24:16;;;;;;;6.60;4.83;;;17.90;99.90;;;;;;4919623;29;20461;-74
2021/07/20 00:26:46;;;;;;;7.17;5.13;;;17.90;99.90;;;;;;4923053;29;20500;-75
2021/07/20 00:29:13;;;;;;;18.70;5.23;;;17.90;1.00;;;;;;4923240;29;20489;-76
2021/07/20 00:31:40;;;;;;;5.30;4.10;;;17.80;1.00;;;;;;4922373;29;20528;-75
2021/07/20 00:34:07;;;;;;;6.73;5.00;;;17.80;1.00;;;;;;4922254;29;20476;-75
2021/07/20 00:36:34;;;;;;;5.63;3.90;;;17.70;1.00;;;;;;4922501;29;20481;-75
2021/07/20 00:39:01;;;;;;;7.93;4.10;;;17.70;40.40;;;;;;4922383;29;20934;-75
2021/07/20 00:41:27;;;;;;;5.73;4.17;;;17.70;99.90;;;;;;4923504;29;20767;-75
2021/07/20 00:43:56;;;;;;;5.87;4.50;;;17.70;1.00;;;;;;4926783;29;20560;-75
2021/07/20 00:46:22;;;;;;;6.93;3.93;;;17.70;1.00;;;;;;4926832;29;20500;-74
2021/07/20 00:48:49;;;;;;;6.80;4.33;;;17.70;1.00;;;;;;4926828;29;20458;-75
2021/07/20 00:51:16;;;;;;;5.37;3.57;;;17.60;8.30;;;;;;4923878;29;20521;-75
2021/07/20 00:53:42;;;;;;;4.53;3.73;;;17.70;11.50;;;;;;4922082;29;20476;-75
2021/07/20 00:56:09;;;;;;;6.33;3.77;;;17.60;99.90;;;;;;4922588;29;20469;-75
2021/07/20 00:58:37;;;;;;;5.90;3.77;;;17.60;99.90;;;;;;4922398;29;20476;-76
2021/07/20 01:01:05;;;;;;;3.60;3.30;;;17.60;1.00;;;;;;4924978;29;20477;-75
2021/07/20 01:03:33;;;;;;;7.97;4.00;;;17.60;1.00;;;;;;4924221;29;20488;-75
2021/07/20 01:06:01;;;;;;;4.13;3.70;;;17.60;99.90;;;;;;4926216;29;20482;-76
2021/07/20 01:08:29;;;;;;;4.93;3.80;;;17.60;99.90;;;;;;4923130;29;20472;-75
2021/07/20 01:10:59;;;;;;;3.70;3.40;;;17.60;1.00;;;;;;4923483;29;20501;-76
2021/07/20 01:13:27;;;;;;;3.93;3.10;;;17.60;1.00;;;;;;4923621;29;20969;-75
2021/07/20 01:15:55;;;;;;;7.30;4.00;;;17.60;99.90;;;;;;4923421;29;20524;-75
2021/07/20 01:18:23;;;;;;;5.47;3.20;;;17.60;99.90;;;;;;4923225;29;20466;-75
2021/07/20 01:20:51;;;;;;;5.23;3.70;;;17.60;99.90;;;;;;4923569;29;20890;-75
2021/07/20 01:23:28;;;;;;;8.73;3.87;;;17.60;99.90;;;;;;4923982;29;20470;-75
2021/07/20 01:25:55;;;;;;;4.63;3.47;;;17.60;1.00;;;;;;4922113;29;20469;-74
2021/07/20 01:28:23;;;;;;;3.80;3.20;;;17.60;1.00;;;;;;4922522;29;20768;-74
2021/07/20 01:30:56;;;;;;;5.33;3.43;;;17.70;29.40;;;;;;4922695;29;20485;-75
2021/07/20 01:33:25;;;;;;;3.80;3.40;;;17.70;9.80;;;;;;4922074;29;20450;-74
2021/07/20 01:35:53;;;;;;;3.97;3.53;;;17.70;1.00;;;;;;4922878;29;20912;-74
2021/07/20 01:38:22;;;;;;;5.47;3.70;;;17.80;99.90;;;;;;4921534;29;20949;-75
2021/07/20 01:40:51;;;;;;;5.37;3.67;;;17.80;66.10;;;;;;4922362;29;20489;-75
2021/07/20 01:43:21;;;;;;;4.67;3.47;;;17.80;10.70;;;;;;4922125;29;20462;-76
2021/07/20 01:45:49;;;;;;;3.90;3.30;;;17.80;1.00;;;;;;4921941;29;20521;-75
2021/07/20 01:48:19;;;;;;;3.90;3.10;;;17.80;1.00;;;;;;4921556;29;20465;-76
2021/07/20 01:50:46;;;;;;;4.50;3.40;;;17.80;1.00;;;;;;4922174;29;20894;-76
2021/07/20 01:53:15;;;;;;;4.93;4.40;;;17.80;1.00;;;;;;4921753;29;20462;-75
2021/07/20 01:55:41;;;;;;;4.73;3.70;;;17.80;1.00;;;;;;4921677;29;20497;-75
2021/07/20 01:58:09;;;;;;;6.20;4.40;;;17.70;1.00;;;;;;4921678;29;20465;-75
2021/07/20 02:00:37;;;;;;;5.23;4.50;;;17.70;1.00;;;;;;4920937;29;20488;-73
2021/07/20 02:03:16;;;;;;;4.37;3.70;;;17.70;1.00;;;;;;4920256;29;20536;-73
2021/07/20 02:08:30;;;;;;;4.67;3.70;;;17.70;1.00;;;;;;4919788;29;20995;-74
2021/07/20 02:11:02;;;;;;;4.00;3.60;;;17.80;1.00;;;;;;4919570;29;20493;-73
2021/07/20 02:13:39;;;;;;;5.10;3.50;;;17.80;1.00;;;;;;4920225;29;20457;-73
2021/07/20 02:16:06;;;;;;;3.80;3.50;;;17.80;1.00;;;;;;4919671;29;20441;-74
2021/07/20 02:18:34;;;;;;;7.10;3.80;;;17.80;1.00;;;;;;4919988;29;20524;-74
2021/07/20 02:21:05;;;;;;;4.73;3.60;;;17.80;99.90;;;;;;4919591;29;20465;-73
2021/07/20 02:23:37;;;;;;;4.03;3.60;;;17.90;99.90;;;;;;4919637;29;20469;-74
2021/07/20 02:26:05;;;;;;;5.30;3.23;;;17.80;99.90;;;;;;4919792;29;20797;-74
2021/07/20 02:28:35;;;;;;;4.60;3.40;;;17.90;99.90;;;;;;4919573;29;20465;-73
2021/07/20 02:31:02;;;;;;;3.97;3.57;;;17.90;99.90;;;;;;4919356;29;20461;-74
2021/07/20 02:33:29;;;;;;;5.23;3.20;;;17.90;99.90;;;;;;4919621;29;20461;-74
2021/07/20 02:35:56;;;;;;;9.33;4.10;;;17.90;99.90;;;;;;4919650;29;20461;-73
2021/07/20 02:38:24;;;;;;;5.03;3.33;;;17.90;99.90;;;;;;4919354;29;20492;-74
2021/07/20 02:40:51;;;;;;;4.00;2.93;;;17.90;99.90;;;;;;4919356;29;20461;-74
2021/07/20 02:43:19;;;;;;;3.57;3.23;;;17.80;99.90;;;;;;4919432;29;20472;-73
2021/07/20 02:45:48;;;;;;;5.10;3.77;;;17.80;99.90;;;;;;4919889;29;20492;-74
2021/07/20 02:48:16;;;;;;;3.77;3.13;;;17.80;99.90;;;;;;4919149;29;20466;-74
2021/07/20 02:50:43;;;;;;;8.40;3.37;;;17.80;99.90;;;;;;4919773;29;20480;-73
2021/07/20 02:53:12;;;;;;;3.80;2.97;;;17.80;99.90;;;;;;4919318;29;20461;-73
2021/07/20 02:55:39;;;;;;;5.17;2.93;;;17.80;99.90;;;;;;4919550;29;20846;-73
2021/07/20 02:58:06;;;;;;;3.60;3.17;;;17.70;99.90;;;;;;4919539;29;20473;-74
2021/07/20 03:00:34;;;;;;;4.10;3.70;;;17.70;99.90;;;;;;4919335;29;20465;-74
2021/07/20 03:03:04;;;;;;;5.57;3.83;;;17.70;99.90;;;;;;4919044;29;20476;-73
2021/07/20 03:05:31;;;;;;;5.17;3.30;;;17.70;99.90;;;;;;4919379;29;20479;-74
2021/07/20 03:08:00;;;;;;;4.63;3.50;;;17.70;99.90;;;;;;4919431;29;20751;-74
2021/07/20 03:10:29;;;;;;;5.17;3.10;;;17.70;99.90;;;;;;4919105;29;20461;-73
2021/07/20 03:13:02;;;;;;;7.30;3.77;;;17.70;99.90;;;;;;4919179;29;20458;-74
2021/07/20 03:15:30;;;;;;;5.07;3.20;;;17.70;99.90;;;;;;4919360;29;20472;-73
2021/07/20 03:18:02;;;;;;;5.97;3.10;;;17.70;99.90;;;;;;4918707;29;20470;-74
2021/07/20 03:20:32;;;;;;;3.60;3.30;;;17.70;99.90;;;;;;4919296;29;20445;-74
2021/07/20 03:23:00;;;;;;;4.80;3.63;;;17.70;99.90;;;;;;4918931;29;21013;-73
2021/07/20 03:25:27;;;;;;;5.47;3.90;;;17.60;99.90;;;;;;4919132;29;20619;-74
2021/07/20 03:27:56;;;;;;;3.60;3.30;;;17.60;99.90;;;;;;4918960;29;20486;-74
2021/07/20 03:30:26;;;;;;;5.63;3.50;;;17.70;99.90;;;;;;4918779;29;20528;-74
2021/07/20 03:32:56;;;;;;;4.20;3.20;;;17.70;99.90;;;;;;4918943;29;20446;-74
2021/07/20 03:35:23;;;;;;;6.13;3.30;;;17.70;99.90;;;;;;4918400;29;20556;-74
2021/07/20 03:37:52;;;;;;;4.00;3.13;;;17.70;99.90;;;;;;4921514;29;20838;-74
2021/07/20 03:40:20;;;;;;;8.20;3.50;;;17.70;99.90;;;;;;4920314;29;20466;-75
2021/07/20 03:42:48;;;;;;;3.60;3.00;;;17.70;99.90;;;;;;4919993;29;20473;-76
2021/07/20 03:45:26;;;;;;;5.20;3.20;;;17.70;99.90;;;;;;4921193;29;20461;-73
2021/07/20 03:47:54;;;;;;;6.60;3.40;;;17.80;99.90;;;;;;4922458;29;20486;-73
2021/07/20 03:50:22;;;;;;;3.70;2.83;;;17.80;99.90;;;;;;4919357;29;20485;-75
2021/07/20 03:52:54;;;;;;;4.93;2.97;;;17.80;99.90;;;;;;4918632;29;20465;-74
2021/07/20 03:55:23;;;;;;;10.57;4.10;;;17.80;99.90;;;;;;4918889;29;20461;-74
2021/07/20 03:57:51;;;;;;;4.67;2.90;;;17.80;99.90;;;;;;4918753;29;20778;-73
2021/07/20 04:00:20;;;;;;;4.70;3.63;;;17.80;99.90;;;;;;4920125;29;20461;-73
2021/07/20 04:02:50;;;;;;;3.40;2.47;;;17.80;99.90;;;;;;4922403;29;20472;-74
2021/07/20 04:05:18;;;;;;;4.83;3.10;;;17.80;99.90;;;;;;4922402;29;20894;-73
2021/07/20 04:07:46;;;;;;;2.97;2.67;;;17.80;99.90;;;;;;4921718;29;20496;-74
2021/07/20 04:10:16;;;;;;;3.53;3.10;;;17.80;99.90;;;;;;4921862;29;20961;-74
2021/07/20 04:12:44;;;;;;;4.00;3.03;;;17.80;1.00;;;;;;4921913;29;20481;-74
2021/07/20 04:15:14;;;;;;;6.80;3.53;;;17.80;1.00;;;;;;4921656;29;20461;-73
2021/07/20 04:17:44;;;;;;;4.80;3.60;;;17.80;99.90;;;;;;4922064;29;20533;-73
2021/07/20 04:20:13;;;;;;;6.80;4.47;;;17.80;99.90;;;;;;4922124;29;20464;-73
2021/07/20 04:22:42;;;;;;;3.30;2.90;;;17.80;1.00;;;;;;4922232;29;20497;-73
2021/07/20 04:25:13;;;;;;;7.30;3.30;;;17.80;1.00;;;;;;4921957;29;20466;-73
2021/07/20 04:27:43;;;;;;;3.70;3.23;;;17.70;1.00;;;;;;4922267;29;20477;-73
2021/07/20 04:30:13;;;;;;;4.37;3.33;;;17.70;1.00;;;;;;4920609;29;20501;-73
2021/07/20 04:32:45;;;;;;;5.80;3.47;;;17.70;1.00;;;;;;4921588;29;20466;-74
2021/07/20 04:35:18;;;;;;;4.37;2.97;;;17.70;1.00;;;;;;4922105;29;20454;-73
2021/07/20 04:37:46;;;;;;;5.23;3.30;;;17.70;55.10;;;;;;4922216;29;20442;-72
2021/07/20 04:40:15;;;;;;;7.90;3.90;;;17.70;99.90;;;;;;4921634;29;20540;-73
2021/07/20 04:42:46;;;;;;;3.93;3.60;;;17.80;99.90;;;;;;4922336;29;20465;-73
2021/07/20 04:45:17;;;;;;;5.97;3.30;;;17.80;99.90;;;;;;4921355;29;20445;-73
2021/07/20 04:47:45;;;;;;;7.10;3.40;;;17.90;2.40;;;;;;4922038;29;20486;-72
2021/07/20 04:50:15;;;;;;;5.10;3.57;;;17.90;99.90;;;;;;4921459;29;20855;-74
2021/07/20 04:52:43;;;;;;;6.30;4.10;;;17.90;99.90;;;;;;4921843;29;20462;-74
2021/07/20 04:55:11;;;;;;;3.70;3.40;;;18.00;1.00;;;;;;4921253;29;20472;-74
2021/07/20 04:57:41;;;;;;;33.27;24.07;;;17.90;1.00;;;;;;4921972;29;20473;-74
2021/07/20 05:00:12;;;;;;;18.17;13.83;;;18.00;99.90;;;;;;4921331;29;20458;-73
2021/07/20 05:02:41;;;;;;;4.47;3.43;;;17.90;99.90;;;;;;4921395;29;20513;-73
2021/07/20 05:05:15;;;;;;;4.33;3.20;;;18.00;99.90;;;;;;4921244;29;20476;-73
2021/07/20 05:07:42;;;;;;;5.00;3.80;;;18.10;1.00;;;;;;4920815;29;20980;-73
2021/07/20 05:10:12;;;;;;;5.77;3.47;;;18.10;27.40;;;;;;4921119;29;20473;-73
2021/07/20 05:12:41;;;;;;;3.70;3.10;;;17.90;99.90;;;;;;4919673;29;20544;-73
2021/07/20 05:15:14;;;;;;;5.37;3.27;;;17.80;15.40;;;;;;4921109;29;20493;-74
2021/07/20 05:17:42;;;;;;;4.93;4.33;;;17.80;1.00;;;;;;4921847;29;20753;-74
2021/07/20 05:20:14;;;;;;;4.30;3.10;;;17.70;1.00;;;;;;4921205;29;20465;-73
2021/07/20 05:22:42;;;;;;;4.77;3.97;;;17.60;1.00;;;;;;4920890;29;20445;-73
2021/07/20 05:25:12;;;;;;;3.93;3.57;;;17.50;1.00;;;;;;4920876;29;20497;-74
2021/07/20 05:27:42;;;;;;;4.07;3.70;;;17.60;1.00;;;;;;4920776;29;20500;-73
2021/07/20 05:30:12;;;;;;;4.37;3.30;;;17.60;99.90;;;;;;4920894;29;20469;-74
2021/07/20 05:32:43;;;;;;;5.93;4.20;;;17.50;1.00;;;;;;4920927;29;20461;-74
2021/07/20 05:35:13;;;;;;;4.83;3.60;;;17.60;1.00;;;;;;4921069;29;20449;-74
2021/07/20 05:37:42;;;;;;;6.57;4.13;;;17.60;1.00;;;;;;4920861;29;20473;-74
2021/07/20 05:40:15;;;;;;;4.43;3.63;;;17.70;99.90;;;;;;4920263;29;20458;-73
2021/07/20 05:42:45;;;;;;;4.67;3.53;;;17.70;1.00;;;;;;4920534;29;20449;-73
2021/07/20 05:45:16;;;;;;;6.47;4.07;;;17.80;1.00;;;;;;4920390;29;20461;-73
2021/07/20 05:47:51;;;;;;;3.87;3.47;;;17.80;99.90;;;;;;4921350;29;20482;-73
2021/07/20 05:50:20;;;;;;;7.17;3.70;;;17.90;1.00;;;;;;4920905;29;20460;-73
2021/07/20 05:52:50;;;;;;;6.97;4.20;;;17.90;1.00;;;;;;4920179;29;20532;-73
2021/07/20 05:55:22;;;;;;;3.80;3.40;;;17.90;1.00;;;;;;4920467;29;20595;-73
2021/07/20 05:57:52;;;;;;;3.80;3.40;;;17.90;99.90;;;;;;4919912;29;20905;-73
2021/07/20 06:00:23;;;;;;;3.90;3.57;;;18.00;1.00;;;;;;4919757;29;20472;-73
2021/07/20 06:02:53;;;;;;;6.27;3.80;;;18.10;1.00;;;;;;4919949;29;20446;-73
2021/07/20 06:05:20;;;;;;;6.90;4.00;;;18.10;99.90;;;;;;4920501;29;20465;-72
2021/07/20 06:07:49;;;;;;;10.10;3.50;;;18.00;1.00;;;;;;4919880;29;20515;-73
2021/07/20 06:10:18;;;;;;;5.83;3.97;;;18.00;29.60;;;;;;4919427;29;20469;-72
2021/07/20 06:12:49;;;;;;;4.97;4.47;;;18.00;99.90;;;;;;4920795;29;20458;-73
2021/07/20 06:15:17;;;;;;;5.03;3.50;;;17.90;1.00;;;;;;4919755;29;20458;-73
2021/07/20 06:17:48;;;;;;;7.00;3.53;;;17.90;1.00;;;;;;4919908;29;20504;-73
2021/07/20 06:20:17;;;;;;;6.40;4.07;;;17.90;1.00;;;;;;4919872;29;20450;-74
2021/07/20 06:22:50;;;;;;;4.10;3.43;;;17.80;1.00;;;;;;4919752;29;20786;-73
2021/07/20 06:25:21;;;;;;;8.40;3.80;;;17.80;1.00;;;;;;4920154;29;20842;-73
2021/07/20 06:27:52;;;;;;;5.33;3.30;;;17.70;1.00;;;;;;4919788;29;20557;-73
2021/07/20 06:30:22;;;;;;;4.60;3.67;;;17.70;35.40;;;;;;4920025;29;20461;-74
2021/07/20 06:32:55;;;;;;;12.50;3.60;;;17.80;99.90;;;;;;4919734;29;20450;-73
2021/07/20 06:35:21;;;;;;;6.53;3.37;;;17.90;99.90;;;;;;4919406;29;20897;-73
2021/07/20 06:37:50;;;;;;;5.70;3.00;;;18.10;1.00;;;;;;4920190;29;20480;-75
2021/07/20 06:40:20;;;;;;;5.10;3.80;;;18.10;1.00;;;;;;4920604;29;20786;-74
2021/07/20 06:42:49;;;;;;;11.50;3.80;;;18.20;1.00;;;;;;4920827;29;20476;-74
2021/07/20 06:45:17;;;;;;;5.30;2.90;;;18.30;99.90;;;;;;4921357;29;20476;-75
2021/07/20 06:47:47;;;;;;;5.03;3.50;;;18.40;1.00;;;;;;4921189;29;20957;-75
2021/07/20 06:50:19;;;;;;;4.60;3.27;;;18.40;1.00;;;;;;4921314;29;20466;-75
2021/07/20 06:52:48;;;;;;;3.80;2.90;;;18.40;1.00;;;;;;4921860;29;20779;-73
2021/07/20 06:55:17;;;;;;;3.10;2.70;;;18.50;1.00;;;;;;4921582;29;20552;-74
2021/07/20 06:57:47;;;;;;;4.03;3.17;;;18.40;1.00;;;;;;4920563;29;20457;-74
2021/07/20 07:00:18;;;;;;;7.77;3.10;;;18.40;99.90;;;;;;4920077;29;20465;-76
2021/07/20 07:02:49;;;;;;;8.00;3.17;;;18.30;99.90;;;;;;4921658;29;20530;-74
2021/07/20 07:05:19;;;;;;;3.43;2.90;;;18.40;99.90;;;;;;4921848;29;20452;-74
2021/07/20 07:07:49;;;;;;;8.50;2.80;;;18.40;99.90;;;;;;4921969;29;20489;-75
2021/07/20 07:10:18;;;;;;;3.53;2.80;;;18.40;1.00;;;;;;4921584;29;20457;-74
2021/07/20 07:12:48;;;;;;;6.30;3.30;;;18.40;1.00;;;;;;4920433;29;20497;-75
2021/07/20 07:15:17;;;;;;;3.03;2.70;;;18.40;1.00;;;;;;4922439;29;20456;-74
2021/07/20 07:17:48;;;;;;;4.70;2.50;;;18.50;1.00;;;;;;4918991;29;20476;-74
2021/07/20 07:20:17;;;;;;;4.60;3.07;;;18.60;1.00;;;;;;4919378;29;20450;-75
2021/07/20 07:22:48;;;;;;;3.43;2.77;;;18.70;99.90;;;;;;4920557;29;20520;-74
2021/07/20 07:25:18;;;;;;;4.00;2.93;;;18.70;99.90;;;;;;4920627;29;20471;-75
2021/07/20 07:27:46;;;;;;;4.60;3.30;;;18.80;99.90;;;;;;4921658;29;20585;-75
2021/07/20 07:30:17;;;;;;;3.27;2.97;;;18.90;99.90;;;;;;4920565;29;20465;-74
2021/07/20 07:32:46;;;;;;;3.70;2.70;;;19.00;1.00;;;;;;4919336;29;20475;-74
2021/07/20 07:35:14;;;;;;;5.40;2.50;;;19.10;1.00;;;;;;4920455;29;20490;-74
2021/07/20 07:37:44;;;;;;;2.97;2.77;;;19.20;1.00;;;;;;4922703;29;21004;-76
2021/07/20 07:40:19;;;;;;;3.67;2.80;;;19.30;1.00;;;;;;4923246;29;20465;-72
2021/07/20 07:42:48;;;;;;;5.07;3.10;;;19.30;1.00;;;;;;4924816;29;20448;-73
2021/07/20 07:45:18;;;;;;;3.53;2.63;;;19.20;1.00;;;;;;4923044;29;20472;-74
2021/07/20 07:47:47;;;;;;;6.60;2.57;;;19.20;1.00;;;;;;4924624;29;20469;-73
2021/07/20 07:50:15;;;;;;;4.70;2.80;;;19.20;1.00;;;;;;4923281;29;20525;-73
2021/07/20 07:52:43;;;;;;;3.13;2.83;;;19.40;1.00;;;;;;4923284;29;20461;-73
2021/07/20 07:55:12;;;;;;;8.60;2.30;;;19.40;99.90;;;;;;4922446;29;20476;-72
2021/07/20 07:57:43;;;;;;;2.40;2.20;;;19.30;99.90;;;;;;4922115;29;20521;-72
2021/07/20 08:00:13;;;;;;;3.30;2.50;;;19.30;99.90;;;;;;4922514;29;20468;-73
2021/07/20 08:02:41;;;;;;;3.00;2.53;;;19.20;99.90;;;;;;4922612;29;20500;-73
2021/07/20 08:05:09;;;;;;;6.40;2.70;;;19.20;99.90;;;;;;4922841;29;20802;-74
2021/07/20 08:07:38;;;;;;;3.00;2.50;;;19.20;99.90;;;;;;4924123;29;20493;-74
2021/07/20 08:10:09;;;;;;;2.80;2.60;;;19.30;99.90;;;;;;4922480;29;20469;-73
2021/07/20 08:12:39;;;;;;;3.13;2.23;;;19.40;99.90;;;;;;4922408;29;20485;-74
2021/07/20 08:15:09;;;;;;;3.83;2.50;;;19.50;99.90;;;;;;4924887;29;20491;-72
2021/07/20 08:17:36;;;;;;;3.23;2.70;;;19.50;99.90;;;;;;4925782;29;20794;-74
2021/07/20 08:20:07;;;;;;;2.80;2.50;;;19.50;99.90;;;;;;4922212;29;20914;-74
2021/07/20 08:22:35;;;;;;;3.63;2.47;;;19.60;99.90;;;;;;4924229;29;20539;-75
2021/07/20 08:25:07;;;;;;;6.77;2.40;;;19.70;99.90;;;;;;4923858;29;20487;-73
2021/07/20 08:27:40;;;;;;;5.00;2.77;;;19.80;99.90;;;;;;4922651;29;20469;-73
2021/07/20 08:30:10;;;;;;;3.50;2.40;;;19.80;99.90;;;;;;4923045;29;20450;-73
2021/07/20 08:32:47;;;;;;;6.57;2.50;;;19.90;99.90;;;;;;4922030;29;20460;-73
2021/07/20 08:35:21;;;;;;;2.90;2.37;;;20.00;99.90;;;;;;4922286;29;20445;-74
2021/07/20 08:37:51;;;;;;;4.00;2.33;;;20.20;89.60;;;;;;4922636;29;20512;-72
2021/07/20 08:40:33;;;;;;;4.60;2.30;;;20.30;62.90;;;;;;4921996;29;20470;-73
2021/07/20 08:43:13;;;;;;;3.40;2.50;;;20.50;18.80;;;;;;4922723;29;20453;-73
2021/07/20 08:46:04;;;;;;;5.50;2.93;;;20.60;14.00;;;;;;4921283;29;20546;-73
2021/07/20 08:48:36;;;;;;;7.93;2.37;;;20.60;1.00;;;;;;4921945;29;20942;-74
2021/07/20 08:51:07;;;;;;;3.27;2.80;;;20.50;1.00;;;;;;4922315;29;20456;-73
2021/07/20 08:53:41;;;;;;;2.57;2.37;;;20.40;1.00;;;;;;4921542;29;20450;-73
2021/07/20 08:56:09;;;;;;;8.20;2.17;;;20.40;4.30;;;;;;4921751;29;20485;-73
2021/07/20 08:58:43;;;;;;;2.43;2.23;;;20.40;9.10;;;;;;4922192;29;20524;-73
2021/07/20 09:01:17;;;;;;;2.73;2.30;;;20.40;12.70;;;;;;4922127;29;20481;-73
2021/07/20 09:03:53;;;;;;;3.53;2.40;;;20.40;12.40;;;;;;4921982;29;20456;-74
2021/07/20 09:06:27;;;;;;;4.23;2.70;;;20.50;14.60;;;;;;4921548;29;20453;-73
2021/07/20 09:08:55;;;;;;;3.23;2.43;;;20.60;11.50;;;;;;4920962;29;20973;-73
2021/07/20 09:11:31;;;;;;;2.90;2.30;;;20.80;11.10;;;;;;4921199;29;20489;-74
2021/07/20 09:14:06;;;;;;;3.13;2.40;;;20.90;14.20;;;;;;4921367;29;20472;-74
2021/07/20 09:16:40;;;;;;;3.63;2.90;;;21.00;11.60;;;;;;4921960;29;20460;-74
2021/07/20 09:19:11;;;;;;;4.50;2.30;;;21.10;11.90;;;;;;4921265;29;20532;-73
2021/07/20 09:21:46;;;;;;;4.73;2.60;;;21.20;13.00;;;;;;4921549;29;20446;-73
2021/07/20 09:24:19;;;;;;;3.53;2.50;;;21.30;16.40;;;;;;4921258;29;20515;-72
2021/07/20 09:26:54;;;;;;;3.60;2.43;;;21.40;20.60;;;;;;4920959;29;20450;-72
2021/07/20 09:29:26;;;;;;;3.80;2.90;;;21.50;24.20;;;;;;4921094;29;20807;-73
2021/07/20 09:32:07;;;;;;;5.63;2.80;;;21.50;39.00;;;;;;4921481;29;20445;-73
2021/07/20 09:34:49;;;;;;;6.00;3.03;;;21.50;45.20;;;;;;4920561;29;20918;-72
2021/07/20 09:37:23;;;;;;;3.60;2.60;;;21.40;29.00;;;;;;4921281;29;20453;-73
2021/07/20 09:40:07;;;;;;;3.20;2.20;;;21.30;26.00;;;;;;4920754;29;20452;-72
2021/07/20 09:42:42;;;;;;;5.10;2.30;;;21.40;7.80;;;;;;4920818;29;20744;-73
2021/07/20 09:45:13;;;;;;;3.57;2.10;;;21.50;1.00;;;;;;4920630;29;20449;-73
2021/07/20 09:48:18;;;;;;;8.53;2.50;;;21.50;3.70;;;;;;4920194;29;20460;-74
2021/07/20 09:50:47;;;;;;;3.30;2.30;;;21.60;1.00;;;;;;4920097;29;20471;-75
2021/07/20 09:53:54;;;;;;;5.73;2.20;;;21.70;2.30;;;;;;4920940;29;20474;-73
2021/07/20 09:57:00;;;;;;;2.03;1.83;;;21.70;1.00;;;;;;4904412;29;20545;-73
2021/07/20 09:59:58;;;;;;;2.30;1.90;;;21.80;1.00;;;;;;4920820;29;20437;-72
2021/07/20 10:02:34;;;;;;;4.37;2.17;;;21.80;1.00;;;;;;4920688;29;20457;-73
2021/07/20 10:05:06;;;;;;;2.83;2.10;;;21.80;1.00;;;;;;4920219;29;20798;-73
2021/07/20 10:07:38;;;;;;;5.10;4.00;;;21.80;1.00;;;;;;4921181;29;20472;-73
2021/07/20 10:10:09;;;;;;;2.50;2.30;;;21.80;1.00;;;;;;4920395;29;20477;-73
2021/07/20 10:12:50;;;;;;;4.37;2.30;;;21.90;1.00;;;;;;4920589;29;20438;-73
2021/07/20 10:15:24;;;;;;;2.40;1.87;;;22.00;1.00;;;;;;4920122;29;20441;-73
2021/07/20 10:17:57;;;;;;;3.20;2.20;;;22.10;1.00;;;;;;4920705;29;20449;-73
2021/07/20 10:20:32;;;;;;;2.70;2.23;;;22.20;1.00;;;;;;4921459;29;20452;-73
2021/07/20 10:23:05;;;;;;;3.20;2.23;;;22.30;1.00;;;;;;4922556;29;20593;-72
2021/07/20 10:25:38;;;;;;;3.30;1.93;;;22.20;1.00;;;;;;4919829;29;20445;-73
2021/07/20 10:28:11;;;;;;;1.77;1.67;;;22.20;1.00;;;;;;4920565;29;20473;-71
2021/07/20 10:30:43;;;;;;;4.40;2.00;;;22.40;1.00;;;;;;4920633;29;20450;-73
2021/07/20 10:33:19;;;;;;;4.40;2.03;;;22.50;1.00;;;;;;4920161;29;20453;-73
2021/07/20 10:35:55;;;;;;;2.80;2.13;;;22.60;1.00;;;;;;4919343;29;20501;-72
2021/07/20 10:38:27;;;;;;;3.13;2.00;;;22.60;1.00;;;;;;4920883;29;20449;-73
2021/07/20 10:40:58;;;;;;;2.13;1.90;;;22.80;1.00;;;;;;4921079;29;20445;-73
2021/07/20 10:43:33;;;;;;;3.70;2.10;;;22.90;1.00;;;;;;4920379;29;20548;-72
2021/07/20 10:46:15;;;;;;;4.20;2.20;;;22.70;1.00;;;;;;4919396;29;20457;-73
2021/07/20 10:48:49;;;;;;;3.53;2.17;;;22.60;1.00;;;;;;4920741;29;20481;-74
2021/07/20 10:51:20;;;;;;;4.83;2.60;;;22.30;2.30;;;;;;4920896;29;20446;-73
2021/07/20 10:53:55;;;;;;;5.47;3.00;;;21.90;9.30;;;;;;4921923;29;20454;-73
2021/07/20 10:56:28;;;;;;;3.00;2.10;;;21.40;17.40;;;;;;4922249;29;20520;-73
2021/07/20 10:59:09;;;;;;;2.50;2.23;;;21.10;44.10;;;;;;4922474;29;20464;-73
2021/07/20 11:01:52;;;;;;;5.37;2.50;;;21.00;68.00;;;;;;4921682;29;20477;-74
2021/07/20 11:04:31;;;;;;;3.93;2.43;;;20.80;91.30;;;;;;4921162;29;20517;-76
2021/07/20 11:07:01;;;;;;;4.27;2.77;;;20.60;80.70;;;;;;4921662;29;20457;-74
2021/07/20 11:09:32;;;;;;;4.17;2.80;;;20.50;67.70;;;;;;4921328;29;20492;-76
2021/07/20 11:12:04;;;;;;;6.27;2.27;;;20.50;91.30;;;;;;4920236;29;20953;-74
2021/07/20 11:14:36;;;;;;;4.63;2.67;;;20.60;92.90;;;;;;4921144;29;20873;-73
2021/07/20 11:17:07;;;;;;;3.73;2.23;;;20.60;98.80;;;;;;4921121;29;20454;-73
2021/07/20 11:19:36;;;;;;;10.80;2.73;;;20.70;99.90;;;;;;4920747;29;20478;-73
2021/07/20 11:22:05;;;;;;;11.80;3.13;;;20.90;99.90;;;;;;4921138;29;20941;-73
2021/07/20 11:24:34;;;;;;;8.60;2.63;;;21.10;99.90;;;;;;4921220;29;20811;-73
2021/07/20 11:27:01;;;;;;;2.60;2.10;;;21.30;96.80;;;;;;4919852;29;20469;-73
2021/07/20 11:29:31;;;;;;;2.97;2.50;;;21.30;88.10;;;;;;4919997;29;20516;-72
2021/07/20 11:32:02;;;;;;;3.07;2.13;;;21.30;85.30;;;;;;4919596;29;20476;-75
2021/07/20 11:34:34;;;;;;;6.80;2.53;;;21.40;96.20;;;;;;4920074;29;20469;-73
2021/07/20 11:37:06;;;;;;;2.73;2.37;;;21.80;72.90;;;;;;4919837;29;20457;-73
2021/07/20 11:39:43;;;;;;;3.27;2.40;;;22.30;80.00;;;;;;4919729;29;20894;-73
2021/07/20 11:42:14;;;;;;;4.40;3.10;;;22.90;67.70;;;;;;4920085;29;20882;-73
2021/07/20 11:44:47;;;;;;;4.03;1.97;;;23.20;14.00;;;;;;4919845;29;20453;-74
2021/07/20 11:47:19;;;;;;;3.37;1.87;;;23.70;15.60;;;;;;4919373;29;20460;-74
2021/07/20 11:50:00;;;;;;;4.33;2.17;;;24.70;8.50;;;;;;4919720;29;20470;-74
2021/07/20 11:52:37;;;;;;;3.57;2.40;;;25.60;1.00;;;;;;4919186;29;20901;-73
2021/07/20 11:55:10;;;;;;;4.47;2.70;;;25.60;1.00;;;;;;4919168;29;20457;-73
2021/07/20 11:58:34;;;;;;;3.50;2.50;;;24.80;1.00;;;;;;4919475;29;20477;-73
2021/07/20 12:01:46;;;;;;;4.10;2.73;;;24.10;1.00;;;;;;4919430;29;20446;-73
2021/07/20 12:04:47;;;;;;;8.83;2.80;;;23.50;1.00;;;;;;4918509;29;20842;-74
2021/07/20 12:07:22;;;;;;;5.97;2.70;;;23.10;1.00;;;;;;4867089;29;20482;-73
2021/07/20 12:10:05;;;;;;;3.13;2.73;;;22.60;1.00;;;;;;4919370;29;20473;-72
2021/07/20 12:12:48;;;;;;;4.20;2.70;;;22.30;12.70;;;;;;4918902;29;20488;-73
2021/07/20 12:15:17;;;;;;;7.37;2.53;;;22.00;15.90;;;;;;4919363;29;20445;-73
2021/07/20 12:17:49;;;;;;;4.57;2.43;;;21.70;35.20;;;;;;4919290;29;20471;-73
2021/07/20 12:20:18;;;;;;;2.93;2.63;;;21.50;84.90;;;;;;4919011;29;20576;-74
2021/07/20 12:22:47;;;;;;;3.63;2.70;;;21.40;99.90;;;;;;4922146;29;20800;-73
2021/07/20 12:25:21;;;;;;;2.53;2.10;;;21.40;99.90;;;;;;4922540;29;20496;-74
2021/07/20 12:27:51;;;;;;;11.07;2.50;;;21.30;99.90;;;;;;4923169;29;20456;-73
2021/07/20 12:30:21;;;;;;;2.50;2.30;;;21.30;99.90;;;;;;4922132;29;20812;-74
2021/07/20 12:32:48;;;;;;;4.37;2.50;;;21.20;99.90;;;;;;4923301;29;20457;-73
2021/07/20 12:35:18;;;;;;;5.90;2.83;;;21.20;99.90;;;;;;4923134;29;20757;-73
2021/07/20 12:37:59;;;;;;;3.00;2.40;;;21.10;99.90;;;;;;4923470;29;20449;-73
2021/07/20 12:40:28;;;;;;;7.17;2.50;;;21.10;99.90;;;;;;4922771;29;20477;-74
2021/07/20 12:43:07;;;;;;;3.90;2.40;;;21.20;99.90;;;;;;4922277;29;20823;-73
2021/07/20 12:45:40;;;;;;;3.73;2.50;;;21.30;99.90;;;;;;4922006;29;20446;-74
2021/07/20 12:48:23;;;;;;;2.50;2.27;;;21.60;99.90;;;;;;4922294;29;20460;-73
2021/07/20 12:50:52;;;;;;;3.40;2.33;;;21.70;99.90;;;;;;4921797;29;20477;-73
2021/07/20 12:53:21;;;;;;;2.83;2.33;;;21.80;99.90;;;;;;4922080;29;20465;-73
2021/07/20 12:55:50;;;;;;;3.90;2.60;;;22.00;99.90;;;;;;4922600;29;20463;-73
2021/07/20 12:58:21;;;;;;;5.40;2.43;;;21.90;99.90;;;;;;4922396;29;20779;-73
2021/07/20 13:00:49;;;;;;;2.43;2.23;;;21.60;99.90;;;;;;4923132;29;20470;-73
2021/07/20 13:03:16;;;;;;;2.30;2.10;;;21.50;99.90;;;;;;4923116;29;20457;-73
2021/07/20 13:05:44;;;;;;;5.43;2.30;;;21.40;99.90;;;;;;4925034;29;20540;-74
2021/07/20 13:08:18;;;;;;;2.20;2.00;;;21.40;99.90;;;;;;4922743;29;20457;-73
2021/07/20 13:10:44;;;;;;;4.40;3.20;;;21.80;99.90;;;;;;4921880;29;20493;-73
2021/07/20 13:13:13;;;;;;;3.40;2.80;;;22.10;99.90;;;;;;4922669;29;20461;-73
2021/07/20 13:15:47;;;;;;;2.83;2.43;;;22.30;99.90;;;;;;4922644;29;20477;-73